CXA924 CYQS-CYSN
Flight info
| Callsign | CXA924 |
|---|---|
| Flight time | 0h 49m |
| Altitude | 3500 |
| Route | 27 NE DEP DCT YHX DUXIG R24 |
| Aircraft | K100/L-L/1200 |
Departure
| Time | 2026-04-30 12:47 |
|---|---|
| Airport | St Thomas Municipal Airport (CYQS) |
Arrival
| Time | 2026-04-30 13:36 |
|---|---|
| Airport | Niagara District Airport (CYSN) |
| Time | Latitude | Longitude | Altitude | Speed | Heading |
|---|---|---|---|---|---|
| 2026-04-30 12:33 | 42.77572 | -81.10304 | 779 ft | 0 kts | 64° |
| 2026-04-30 12:41 | 42.77571 | -81.10306 | 779 ft | 8 kts | 47° |
| 2026-04-30 12:41 | 42.77588 | -81.10301 | 779 ft | 6 kts | 323° |
| 2026-04-30 12:41 | 42.77550 | -81.10311 | 779 ft | 10 kts | 171° |
| 2026-04-30 12:42 | 42.77487 | -81.10243 | 779 ft | 13 kts | 132° |
| 2026-04-30 12:42 | 42.77432 | -81.10166 | 779 ft | 0 kts | 131° |
| 2026-04-30 12:44 | 42.77420 | -81.10147 | 779 ft | 6 kts | 130° |
| 2026-04-30 12:45 | 42.77363 | -81.10125 | 778 ft | 12 kts | 220° |
| 2026-04-30 12:45 | 42.77351 | -81.10169 | 778 ft | 0 kts | 261° |
| 2026-04-30 12:45 | 42.77351 | -81.10170 | 778 ft | 3 kts | 263° |
| 2026-04-30 12:46 | 42.77333 | -81.10466 | 779 ft | 59 kts | 271° |
| 2026-04-30 12:46 | 42.77254 | -81.11192 | 869 ft | 90 kts | 263° |
| 2026-04-30 12:46 | 42.77086 | -81.12081 | 1064 ft | 99 kts | 266° |
| 2026-04-30 12:46 | 42.76979 | -81.13039 | 1212 ft | 113 kts | 270° |
| 2026-04-30 12:47 | 42.76828 | -81.14173 | 1303 ft | 128 kts | 263° |
| 2026-04-30 12:47 | 42.76600 | -81.15398 | 1462 ft | 138 kts | 261° |
| 2026-04-30 12:47 | 42.76391 | -81.16700 | 1618 ft | 141 kts | 274° |
| 2026-04-30 12:47 | 42.76794 | -81.17823 | 1792 ft | 135 kts | 328° |
| 2026-04-30 12:48 | 42.77695 | -81.17941 | 1960 ft | 138 kts | 22° |
| 2026-04-30 12:48 | 42.78284 | -81.16918 | 2121 ft | 148 kts | 75° |
| 2026-04-30 12:48 | 42.78283 | -81.15489 | 2272 ft | 153 kts | 88° |
| 2026-04-30 12:48 | 42.78224 | -81.14044 | 2405 ft | 154 kts | 88° |
| 2026-04-30 12:49 | 42.78164 | -81.12588 | 2539 ft | 154 kts | 88° |
| 2026-04-30 12:49 | 42.78092 | -81.11132 | 2673 ft | 155 kts | 91° |
| 2026-04-30 12:49 | 42.78025 | -81.09682 | 2807 ft | 153 kts | 81° |
| 2026-04-30 12:49 | 42.78294 | -81.08318 | 2940 ft | 148 kts | 61° |
| 2026-04-30 12:50 | 42.78732 | -81.07042 | 3070 ft | 149 kts | 60° |
| 2026-04-30 12:50 | 42.79176 | -81.05765 | 3204 ft | 149 kts | 59° |
| 2026-04-30 12:50 | 42.79626 | -81.04484 | 3334 ft | 150 kts | 59° |
| 2026-04-30 12:50 | 42.80079 | -81.03204 | 3460 ft | 150 kts | 59° |
| 2026-04-30 12:51 | 42.80533 | -81.01917 | 3530 ft | 154 kts | 59° |
| 2026-04-30 12:51 | 42.81002 | -81.00585 | 3529 ft | 157 kts | 60° |
| 2026-04-30 12:51 | 42.81476 | -80.99244 | 3528 ft | 157 kts | 59° |
| 2026-04-30 12:51 | 42.81944 | -80.97924 | 3527 ft | 157 kts | 59° |
| 2026-04-30 12:52 | 42.82421 | -80.96564 | 3526 ft | 157 kts | 60° |
| 2026-04-30 12:52 | 42.82888 | -80.95238 | 3526 ft | 157 kts | 59° |
| 2026-04-30 12:52 | 42.83359 | -80.93893 | 3524 ft | 157 kts | 60° |
| 2026-04-30 12:52 | 42.83831 | -80.92553 | 3522 ft | 157 kts | 59° |
| 2026-04-30 12:53 | 42.84301 | -80.91213 | 3520 ft | 155 kts | 59° |
| 2026-04-30 12:53 | 42.84763 | -80.89898 | 3526 ft | 153 kts | 59° |
| 2026-04-30 12:53 | 42.85220 | -80.88594 | 3522 ft | 152 kts | 60° |
| 2026-04-30 12:53 | 42.85676 | -80.87294 | 3523 ft | 151 kts | 59° |
| 2026-04-30 12:54 | 42.86130 | -80.85999 | 3522 ft | 151 kts | 59° |
| 2026-04-30 12:54 | 42.86585 | -80.84704 | 3527 ft | 152 kts | 60° |
| 2026-04-30 12:54 | 42.87042 | -80.83401 | 3525 ft | 153 kts | 59° |
| 2026-04-30 12:54 | 42.87500 | -80.82088 | 3521 ft | 154 kts | 60° |
| 2026-04-30 12:55 | 42.87958 | -80.80781 | 3519 ft | 152 kts | 59° |
| 2026-04-30 12:55 | 42.88412 | -80.79487 | 3522 ft | 151 kts | 59° |
| 2026-04-30 12:55 | 42.88866 | -80.78191 | 3525 ft | 152 kts | 60° |
| 2026-04-30 12:55 | 42.89319 | -80.76897 | 3523 ft | 151 kts | 60° |
| 2026-04-30 12:56 | 42.89772 | -80.75598 | 3522 ft | 151 kts | 60° |
| 2026-04-30 12:56 | 42.90223 | -80.74305 | 3517 ft | 150 kts | 59° |
| 2026-04-30 12:56 | 42.90674 | -80.73014 | 3528 ft | 151 kts | 59° |
| 2026-04-30 12:56 | 42.91127 | -80.71712 | 3522 ft | 152 kts | 60° |
| 2026-04-30 12:57 | 42.91581 | -80.70408 | 3532 ft | 153 kts | 60° |
| 2026-04-30 12:57 | 42.91885 | -80.69534 | 3534 ft | 155 kts | 59° |
| 2026-04-30 12:57 | 42.92354 | -80.68190 | 3530 ft | 158 kts | 60° |
| 2026-04-30 12:57 | 42.92830 | -80.66825 | 3531 ft | 160 kts | 59° |
| 2026-04-30 12:58 | 42.93310 | -80.65442 | 3528 ft | 161 kts | 60° |
| 2026-04-30 12:58 | 42.93944 | -80.63621 | 3523 ft | 158 kts | 60° |
| 2026-04-30 12:58 | 42.94261 | -80.62710 | 3525 ft | 156 kts | 60° |
| 2026-04-30 12:58 | 42.94727 | -80.61370 | 3521 ft | 156 kts | 59° |
| 2026-04-30 12:59 | 42.95193 | -80.60030 | 3521 ft | 156 kts | 60° |
| 2026-04-30 12:59 | 42.95653 | -80.58706 | 3519 ft | 153 kts | 60° |
| 2026-04-30 12:59 | 42.96099 | -80.57424 | 3510 ft | 150 kts | 59° |
| 2026-04-30 12:59 | 42.96540 | -80.56151 | 3511 ft | 147 kts | 60° |
| 2026-04-30 13:00 | 42.96977 | -80.54894 | 3517 ft | 146 kts | 60° |
| 2026-04-30 13:00 | 42.97411 | -80.53641 | 3526 ft | 145 kts | 60° |
| 2026-04-30 13:00 | 42.97843 | -80.52392 | 3523 ft | 145 kts | 60° |
| 2026-04-30 13:00 | 42.98276 | -80.51144 | 3527 ft | 146 kts | 60° |
| 2026-04-30 13:01 | 42.98656 | -80.50044 | 3519 ft | 146 kts | 60° |
| 2026-04-30 13:01 | 42.99090 | -80.48785 | 3518 ft | 145 kts | 60° |
| 2026-04-30 13:01 | 42.99522 | -80.47533 | 3515 ft | 145 kts | 60° |
| 2026-04-30 13:01 | 42.99954 | -80.46284 | 3521 ft | 145 kts | 60° |
| 2026-04-30 13:02 | 43.00387 | -80.45033 | 3518 ft | 146 kts | 60° |
| 2026-04-30 13:02 | 43.00818 | -80.43786 | 3517 ft | 146 kts | 60° |
| 2026-04-30 13:02 | 43.01246 | -80.42544 | 3513 ft | 147 kts | 60° |
| 2026-04-30 13:02 | 43.01831 | -80.40849 | 3518 ft | 148 kts | 60° |
| 2026-04-30 13:03 | 43.02122 | -80.40001 | 3514 ft | 149 kts | 60° |
| 2026-04-30 13:03 | 43.02561 | -80.38725 | 3517 ft | 148 kts | 60° |
| 2026-04-30 13:03 | 43.03003 | -80.37444 | 3522 ft | 150 kts | 60° |
| 2026-04-30 13:03 | 43.03446 | -80.36154 | 3518 ft | 150 kts | 60° |
| 2026-04-30 13:04 | 43.03893 | -80.34864 | 3522 ft | 150 kts | 59° |
| 2026-04-30 13:04 | 43.04337 | -80.33570 | 3521 ft | 151 kts | 60° |
| 2026-04-30 13:04 | 43.04783 | -80.32269 | 3519 ft | 151 kts | 60° |
| 2026-04-30 13:04 | 43.05231 | -80.30970 | 3522 ft | 151 kts | 60° |
| 2026-04-30 13:05 | 43.05678 | -80.29674 | 3521 ft | 150 kts | 60° |
| 2026-04-30 13:05 | 43.06119 | -80.28389 | 3516 ft | 150 kts | 60° |
| 2026-04-30 13:05 | 43.06561 | -80.27095 | 3520 ft | 150 kts | 60° |
| 2026-04-30 13:06 | 43.07447 | -80.24517 | 3519 ft | 150 kts | 60° |
| 2026-04-30 13:06 | 43.07890 | -80.23225 | 3515 ft | 150 kts | 61° |
| 2026-04-30 13:06 | 43.08332 | -80.21933 | 3514 ft | 150 kts | 60° |
| 2026-04-30 13:06 | 43.08776 | -80.20642 | 3511 ft | 150 kts | 61° |
| 2026-04-30 13:07 | 43.09214 | -80.19352 | 3515 ft | 149 kts | 60° |
| 2026-04-30 13:07 | 43.09650 | -80.18082 | 3518 ft | 150 kts | 60° |
| 2026-04-30 13:07 | 43.10092 | -80.16790 | 3520 ft | 150 kts | 61° |
| 2026-04-30 13:07 | 43.10536 | -80.15492 | 3516 ft | 150 kts | 60° |
| 2026-04-30 13:08 | 43.10980 | -80.14199 | 3518 ft | 150 kts | 60° |
| 2026-04-30 13:08 | 43.11423 | -80.12899 | 3518 ft | 151 kts | 60° |
| 2026-04-30 13:08 | 43.11867 | -80.11595 | 3514 ft | 151 kts | 60° |
| 2026-04-30 13:08 | 43.12312 | -80.10291 | 3515 ft | 151 kts | 60° |
| 2026-04-30 13:09 | 43.12757 | -80.08985 | 3516 ft | 152 kts | 60° |
| 2026-04-30 13:09 | 43.13188 | -80.07720 | 3517 ft | 151 kts | 60° |
| 2026-04-30 13:09 | 43.13641 | -80.06391 | 3517 ft | 151 kts | 60° |
| 2026-04-30 13:09 | 43.14088 | -80.05081 | 3516 ft | 152 kts | 61° |
| 2026-04-30 13:10 | 43.14534 | -80.03767 | 3520 ft | 153 kts | 61° |
| 2026-04-30 13:10 | 43.14980 | -80.02451 | 3514 ft | 151 kts | 61° |
| 2026-04-30 13:10 | 43.15425 | -80.01146 | 3516 ft | 151 kts | 60° |
| 2026-04-30 13:10 | 43.15865 | -79.99853 | 3515 ft | 151 kts | 60° |
| 2026-04-30 13:11 | 43.16300 | -79.98571 | 3517 ft | 151 kts | 61° |
| 2026-04-30 13:11 | 43.16741 | -79.97275 | 3513 ft | 150 kts | 60° |
| 2026-04-30 13:11 | 43.17183 | -79.95972 | 3514 ft | 150 kts | 61° |
| 2026-04-30 13:11 | 43.17622 | -79.94676 | 3514 ft | 150 kts | 61° |
| 2026-04-30 13:12 | 43.17951 | -79.93313 | 3516 ft | 152 kts | 70° |
| 2026-04-30 13:12 | 43.18243 | -79.91918 | 3512 ft | 152 kts | 69° |
| 2026-04-30 13:12 | 43.18540 | -79.90532 | 3518 ft | 152 kts | 69° |
| 2026-04-30 13:13 | 43.19135 | -79.87750 | 3516 ft | 152 kts | 69° |
| 2026-04-30 13:13 | 43.19433 | -79.86355 | 3517 ft | 153 kts | 69° |
| 2026-04-30 13:13 | 43.20023 | -79.83584 | 3517 ft | 152 kts | 69° |
| 2026-04-30 13:14 | 43.20322 | -79.82185 | 3514 ft | 153 kts | 69° |
| 2026-04-30 13:14 | 43.20621 | -79.80784 | 3524 ft | 153 kts | 69° |
| 2026-04-30 13:14 | 43.21218 | -79.77977 | 3519 ft | 154 kts | 69° |
| 2026-04-30 13:15 | 43.21520 | -79.76554 | 3514 ft | 155 kts | 70° |
| 2026-04-30 13:15 | 43.22121 | -79.73722 | 3515 ft | 156 kts | 70° |
| 2026-04-30 13:15 | 43.22422 | -79.72297 | 3521 ft | 155 kts | 70° |
| 2026-04-30 13:16 | 43.22724 | -79.70878 | 3522 ft | 155 kts | 70° |
| 2026-04-30 13:16 | 43.23026 | -79.69453 | 3522 ft | 156 kts | 70° |
| 2026-04-30 13:16 | 43.23329 | -79.68018 | 3521 ft | 158 kts | 70° |
| 2026-04-30 13:17 | 43.23938 | -79.65137 | 3511 ft | 156 kts | 70° |
| 2026-04-30 13:17 | 43.24238 | -79.63719 | 3515 ft | 156 kts | 70° |
| 2026-04-30 13:17 | 43.24835 | -79.60900 | 3510 ft | 154 kts | 70° |
| 2026-04-30 13:18 | 43.25132 | -79.59488 | 3516 ft | 154 kts | 70° |
| 2026-04-30 13:18 | 43.25633 | -79.57109 | 3517 ft | 155 kts | 70° |
| 2026-04-30 13:18 | 43.25925 | -79.55719 | 3509 ft | 155 kts | 70° |
| 2026-04-30 13:19 | 43.26213 | -79.54350 | 3509 ft | 155 kts | 70° |
| 2026-04-30 13:19 | 43.26512 | -79.52929 | 3513 ft | 155 kts | 70° |
| 2026-04-30 13:19 | 43.26809 | -79.51507 | 3509 ft | 155 kts | 70° |
| 2026-04-30 13:19 | 43.27105 | -79.50095 | 3511 ft | 156 kts | 70° |
| 2026-04-30 13:20 | 43.27406 | -79.48661 | 3510 ft | 156 kts | 70° |
| 2026-04-30 13:20 | 43.27704 | -79.47235 | 3519 ft | 156 kts | 70° |
| 2026-04-30 13:20 | 43.28005 | -79.45803 | 3512 ft | 156 kts | 70° |
| 2026-04-30 13:20 | 43.28305 | -79.44366 | 3511 ft | 157 kts | 70° |
| 2026-04-30 13:21 | 43.28605 | -79.42930 | 3511 ft | 156 kts | 70° |
| 2026-04-30 13:21 | 43.28902 | -79.41513 | 3517 ft | 156 kts | 70° |
| 2026-04-30 13:21 | 43.29201 | -79.40083 | 3517 ft | 156 kts | 70° |
| 2026-04-30 13:22 | 43.29779 | -79.37313 | 3509 ft | 156 kts | 70° |
| 2026-04-30 13:22 | 43.30076 | -79.35884 | 3510 ft | 156 kts | 70° |
| 2026-04-30 13:22 | 43.30663 | -79.33057 | 3503 ft | 155 kts | 70° |
| 2026-04-30 13:23 | 43.30961 | -79.31632 | 3509 ft | 155 kts | 70° |
| 2026-04-30 13:23 | 43.31546 | -79.28811 | 3510 ft | 155 kts | 70° |
| 2026-04-30 13:24 | 43.32132 | -79.25988 | 3508 ft | 156 kts | 70° |
| 2026-04-30 13:24 | 43.32723 | -79.23133 | 3543 ft | 155 kts | 70° |
| 2026-04-30 13:25 | 43.33285 | -79.20402 | 3290 ft | 144 kts | 69° |
| 2026-04-30 13:25 | 43.33762 | -79.18111 | 3050 ft | 136 kts | 69° |
| 2026-04-30 13:26 | 43.34520 | -79.14440 | 2659 ft | 132 kts | 69° |
| 2026-04-30 13:26 | 43.35032 | -79.11948 | 2406 ft | 138 kts | 70° |
| 2026-04-30 13:27 | 43.35541 | -79.09466 | 2148 ft | 140 kts | 69° |
| 2026-04-30 13:28 | 43.36166 | -79.05765 | 1781 ft | 144 kts | 91° |
| 2026-04-30 13:28 | 43.35144 | -79.03465 | 1713 ft | 144 kts | 141° |
| 2026-04-30 13:28 | 43.34504 | -79.02814 | 1710 ft | 142 kts | 140° |
| 2026-04-30 13:29 | 43.33058 | -79.01293 | 1704 ft | 139 kts | 140° |
| 2026-04-30 13:29 | 43.31519 | -78.99693 | 1709 ft | 138 kts | 140° |
| 2026-04-30 13:30 | 43.29049 | -78.99506 | 1711 ft | 119 kts | 225° |
| 2026-04-30 13:31 | 43.28021 | -79.01269 | 1712 ft | 119 kts | 237° |
| 2026-04-30 13:31 | 43.26515 | -79.03975 | 1711 ft | 120 kts | 238° |
| 2026-04-30 13:32 | 43.25526 | -79.05754 | 1710 ft | 109 kts | 238° |
| 2026-04-30 13:32 | 43.24655 | -79.07312 | 1703 ft | 100 kts | 239° |
| 2026-04-30 13:33 | 43.23847 | -79.08760 | 1708 ft | 91 kts | 241° |
| 2026-04-30 13:33 | 43.23167 | -79.09999 | 1544 ft | 87 kts | 242° |
| 2026-04-30 13:34 | 43.22796 | -79.10671 | 1430 ft | 89 kts | 241° |
| 2026-04-30 13:34 | 43.21684 | -79.12670 | 1045 ft | 93 kts | 241° |
| 2026-04-30 13:35 | 43.21303 | -79.13357 | 912 ft | 91 kts | 240° |
| 2026-04-30 13:35 | 43.20547 | -79.14712 | 649 ft | 82 kts | 239° |
| 2026-04-30 13:36 | 43.19896 | -79.15865 | 428 ft | 74 kts | 239° |
| 2026-04-30 13:36 | 43.19600 | -79.16421 | 336 ft | 72 kts | 239° |
| 2026-04-30 13:36 | 43.19221 | -79.17111 | 324 ft | 20 kts | 227° |
| 2026-04-30 13:37 | 43.19089 | -79.17149 | 323 ft | 6 kts | 180° |
| 2026-04-30 13:37 | 43.19046 | -79.17151 | 324 ft | 3 kts | 184° |
| 2026-04-30 13:38 | 43.18986 | -79.17112 | 326 ft | 0 kts | 131° |